Flight Track Log - Related Links

Times and Time Zones

All times are in EDT time to prevent confusion due to time zone crossing. See the EJA831 flight status page for this flight to view local times or setup timezone preferences in your user account.

Time Position Orientation Groundspeed Altitude Reporting Facility
EDT Latitude Longitude Course Direction KTS MPH feet Rate Location/Type
Sat 09:47:53 PM 37.7333 -122.2667 288° West 193 222 2,100  Level Northern Cal TRACON
Sat 09:48:53 PM 37.7500 -122.3333 288° West 226 260 4,900 2,947 Climbing Northern Cal TRACON
Sat 09:49:47 PM 37.7000 -122.3500 195° South 230 265 7,700 3,350 Climbing Northern Cal TRACON
Sat 09:50:53 PM 37.6167 -122.3833 198° South 291 335 11,600 3,276 Climbing Northern Cal TRACON
Sat 09:52:19 PM 37.4989 -122.4106 190° South 297 342 16,000 2,980 Climbing Oakland Center
Sat 09:53:20 PM 37.4125 -122.4372 194° South 314 361 18,900 2,656 Climbing Oakland Center
Sat 09:54:21 PM 37.3228 -122.4633 193° South 327 376 21,400 2,508 Climbing Oakland Center
Sat 09:55:22 PM 37.2306 -122.4919 194° South 339 390 24,000 1,967 Climbing Oakland Center
Sat 09:56:23 PM 37.1367 -122.5175 192° South 347 399 25,400 1,525 Climbing Oakland Center
Sat 09:57:24 PM 37.0431 -122.4603 154° Southeast 375 432 27,100 1,672 Climbing Oakland Center
Sat 09:58:25 PM 36.9569 -122.3789 143° Southeast 387 445 28,800 934 Climbing Oakland Center
Sat 09:59:26 PM 36.8664 -122.2964 144° Southeast 400 460 29,000 98 Climbing Oakland Center
Sat 10:00:27 PM 36.7750 -122.2147 144° Southeast 405 466 29,000  Level Oakland Center
Sat 10:01:28 PM 36.6853 -122.1347 144° Southeast 398 458 29,000  Level Oakland Center
Sat 10:02:28 PM 36.5975 -122.0558 144° Southeast 391 450 29,000  Level Oakland Center
Sat 10:03:29 PM 36.4925 -121.9650 145° Southeast 385 443 29,000  Level Oakland Center
Sat 10:04:30 PM 36.4061 -121.8856 143° Southeast 387 445 29,000  Level Oakland Center
Sat 10:05:31 PM 36.3178 -121.8111 146° Southeast 387 445 29,000  Level Oakland Center
Sat 10:06:32 PM 36.2389 -121.7403 144° Southeast 381 438 29,000  Level Oakland Center
Sat 10:07:33 PM 36.1508 -121.6656 146° Southeast 383 441 29,000  Level Oakland Center
Sat 10:08:34 PM 36.0639 -121.5897 145° Southeast 384 442 29,000  Level Oakland Center
Sat 10:09:35 PM 35.9769 -121.5144 145° Southeast 383 441 29,000  Level Oakland Center
Sat 10:10:36 PM 35.8900 -121.4397 145° Southeast 382 440 29,000  Level Oakland Center
Sat 10:11:37 PM 35.7853 -121.3503 145° Southeast 383 441 29,000  Level Oakland Center
Sat 10:12:37 PM 35.6994 -121.2753 145° Southeast 381 438 29,000  Level Oakland Center
Sat 10:13:38 PM 35.6133 -121.2003 145° Southeast 380 437 29,000  Level Oakland Center
Sat 10:14:39 PM 35.5267 -121.1258 145° Southeast 382 440 29,000  Level Oakland Center
Sat 10:15:39 PM 35.4489 -121.0650 147° Southeast 381 438 29,000  Level Los Angeles Center
Sat 10:16:40 PM 35.3606 -120.9956 147° Southeast 379 436 29,000  Level Los Angeles Center
Sat 10:17:41 PM 35.2539 -120.9117 147° Southeast 379 436 29,000  Level Los Angeles Center
Sat 10:18:42 PM 35.1647 -120.8431 148° Southeast 379 436 29,000  Level Los Angeles Center
Sat 10:19:43 PM 35.0756 -120.7731 147° Southeast 380 437 29,000  Level Los Angeles Center
Sat 10:20:44 PM 34.9858 -120.7036 148° Southeast 381 438 29,000  Level Los Angeles Center
Sat 10:21:47 PM 34.8964 -120.6342 148° Southeast 380 437 29,000  Level Los Angeles Center
Sat 10:22:47 PM 34.8000 -120.5586 147° Southeast 379 436 29,000  Level Los Angeles Center
Sat 10:23:48 PM 34.7111 -120.4892 147° Southeast 381 438 29,000  Level Los Angeles Center
Sat 10:24:49 PM 34.6219 -120.4203 148° Southeast 382 440 29,000  Level Los Angeles Center
Sat 10:25:50 PM 34.5331 -120.3550 149° Southeast 379 436 29,000  Level Los Angeles Center
Sat 10:26:51 PM 34.4444 -120.2886 148° Southeast 374 430 29,000 -49 Level Los Angeles Center
Sat 10:27:52 PM 34.3550 -120.2206 148° Southeast 378 435 28,900 -738 Descending Los Angeles Center
Sat 10:28:53 PM 34.2567 -120.1417 146° Southeast 396 456 27,500 -1,426 Descending Los Angeles Center
Sat 10:29:54 PM 34.1961 -120.0278 123° Southeast 404 465 26,000 -1,426 Descending Los Angeles Center
Sat 10:30:55 PM 34.1397 -119.9136 121° Southeast 399 459 24,600 -1,415 Descending Los Angeles Center
Sat 10:31:57 PM 34.0831 -119.8033 122° Southeast 390 449 23,100 -1,463 Descending Los Angeles Center
Sat 10:32:58 PM 34.0278 -119.6928 121° Southeast 387 445 21,600 -1,475 Descending Los Angeles Center
Sat 10:33:59 PM 33.9742 -119.5858 121° Southeast 375 432 20,100 -1,475 Descending Los Angeles Center
Sat 10:35:00 PM 33.9217 -119.4828 122° Southeast 364 419 18,600 -1,525 Descending Los Angeles Center
Sat 10:36:01 PM 33.8622 -119.3631 121° Southeast 348 400 17,000 -1,426 Descending Los Angeles Center
Sat 10:37:02 PM 33.8122 -119.2647 121° Southeast 347 399 15,700 -1,279 Descending Los Angeles Center
Sat 10:38:03 PM 33.7619 -119.1681 122° Southeast 343 395 14,400 -1,268 Descending Los Angeles Center
Sat 10:39:05 PM 33.7128 -119.0728 122° Southeast 337 388 13,100 -1,268 Descending Los Angeles Center
Sat 10:40:06 PM 33.6667 -118.9814 121° Southeast 322 371 11,800 -1,033 Descending Los Angeles Center
Sat 10:41:07 PM 33.6214 -118.8944 122° Southeast 310 357 11,000 -393 Descending Los Angeles Center
Sat 10:42:08 PM 33.5772 -118.8072 121° Southeast 309 356 11,000 -492 Level Los Angeles Center
Sat 10:43:09 PM 33.5542 -118.7100 106° East 307 353 10,000 -1,268 Descending Los Angeles Center
Sat 10:44:11 PM 33.5350 -118.6181 104° East 293 337 8,400 -1,672 Descending Los Angeles Center
Sat 10:45:11 PM 33.5344 -118.5175 90° East 266 306 6,600 -1,636 Descending Los Angeles Center
Sat 10:46:12 PM 33.5450 -118.4358 81° East 254 292 5,100 -780 Descending Los Angeles Center
Sat 10:47:14 PM 33.5567 -118.3556 80° East 250 288 5,000 -49 Descending Los Angeles Center
Sat 10:48:15 PM 33.5683 -118.2739 80° East 250 288 5,000 -49 Level Los Angeles Center
Sat 10:49:16 PM 33.5778 -118.1967 82° East 244 281 4,900  Descending Los Angeles Center
Sat 10:50:18 PM 33.5872 -118.1286 81° East 223 257 5,000 98 Climbing Los Angeles Center
Sat 10:51:18 PM 33.6108 -118.0661 66° East 218 251 5,100 50 Climbing Los Angeles Center
Sat 10:52:19 PM 33.6564 -118.0011 50° Northeast 214 246 5,100 -415 Level Los Angeles Center
Sat 10:53:28 PM 33.7167 -117.9500 35° Northeast 203 234 4,200 -877 Descending Southern California TRACON
Sat 10:54:29 PM 33.7500 -117.9167 40° Northeast 192 221 3,200 -893 Descending Southern California TRACON
Sat 10:55:29 PM 33.7667 -117.8667 68° East 176 203 2,400 -900 Descending Southern California TRACON
Sat 10:56:29 PM 33.7333 -117.8333 140° Southeast 154 177 1,400 -1,000 Descending Southern California TRACON
Sat 10:57:29 PM 33.7000 -117.8500 203° Southwest 134 154 400 -1,000 Descending Southern California TRACON
Sat 11:00:00 PM 33.6667 -117.8667 132° Southeast  Level FlightAware Approximate
Sat 11:07:00 PM 33.9425 -118.4081 132° Southeast  Level Estimated
Sat 11:08:00 PM 33.9425 -118.4081 132° Southeast  Level Estimated
Sat 11:09:00 PM 33.9425 -118.4081 132° Southeast  Level Estimated
Sat 11:10:00 PM 33.9425 -118.4081 132° Southeast  Level Estimated
Sat 11:11:00 PM 33.9425 -118.4081 132° Southeast  Level Estimated

Login

Don't have an account? Register now (free) for customized features, flight alerts, and more!